Time;durP1;ratioP1;P1;durP2;ratioP2;P2;SDS_P1;SDS_P2;PMS_P1;PMS_P2;Temp;Humidity;BMP_temperature;BMP_pressure;BME280_temperature;BME280_humidity;BME280_pressure;Samples;Min_cycle;Max_cycle;Signal;HPM_P1;HPM_P2
2022/11/19 00:01:08;;;;;;;1999.90;999.90;;;7.60;99.90;;;;;;4988111;28;20446;-68
2022/11/19 00:03:36;;;;;;;1999.90;999.90;;;7.60;99.90;;;;;;4988207;28;20474;-68
2022/11/19 00:06:07;;;;;;;1999.90;999.90;;;7.60;99.90;;;;;;4987039;28;20561;-68
2022/11/19 00:08:34;;;;;;;1999.90;999.90;;;7.70;99.90;;;;;;4988118;28;20446;-69
2022/11/19 00:11:06;;;;;;;1999.90;999.90;;;7.70;99.90;;;;;;4987072;28;20466;-69
2022/11/19 00:13:32;;;;;;;1999.90;999.90;;;7.70;99.90;;;;;;4987616;28;21172;-68
2022/11/19 00:16:03;;;;;;;1999.90;999.90;;;7.60;99.90;;;;;;4987870;28;20545;-67
2022/11/19 00:18:30;;;;;;;1999.90;999.90;;;7.60;99.90;;;;;;4987167;28;20446;-68
2022/11/19 00:21:02;;;;;;;1999.90;999.90;;;7.60;99.90;;;;;;4987549;28;20538;-67
2022/11/19 00:23:30;;;;;;;1999.90;999.90;;;7.60;99.90;;;;;;4987310;28;20446;-67
2022/11/19 00:26:02;;;;;;;1999.90;999.90;;;7.60;99.90;;;;;;4986445;28;20478;-68
2022/11/19 00:28:29;;;;;;;1999.90;999.90;;;7.70;99.90;;;;;;4987929;28;21032;-68
2022/11/19 00:31:00;;;;;;;1999.90;999.90;;;7.70;99.90;;;;;;4986777;28;21183;-67
2022/11/19 00:33:28;;;;;;;1999.90;999.90;;;7.70;99.90;;;;;;4987831;28;20442;-68
2022/11/19 00:35:55;;;;;;;1999.90;999.90;;;7.60;99.90;;;;;;4988155;28;20454;-68
2022/11/19 00:38:22;;;;;;;1999.90;999.90;;;7.60;99.90;;;;;;4982397;28;20833;-68
2022/11/19 00:40:50;;;;;;;1999.90;999.90;;;7.70;99.90;;;;;;4968063;28;20452;-67
2022/11/19 00:46:01;;;;;;;1999.90;999.90;;;7.70;99.90;;;;;;4970119;28;20486;-68
2022/11/19 00:48:28;;;;;;;1999.90;999.90;;;7.70;99.90;;;;;;4988489;28;20443;-68
2022/11/19 00:50:55;;;;;;;1999.90;999.90;;;7.70;99.90;;;;;;4987915;28;20451;-68
2022/11/19 00:53:22;;;;;;;1999.90;999.90;;;7.70;99.90;;;;;;4988339;28;20980;-68
2022/11/19 00:55:50;;;;;;;1999.90;999.90;;;7.70;99.90;;;;;;4987917;28;20937;-68
2022/11/19 00:58:18;;;;;;;1999.90;999.90;;;7.70;99.90;;;;;;4988853;28;20921;-68
2022/11/19 01:00:45;;;;;;;1999.90;999.90;;;7.80;99.90;;;;;;4987557;28;21034;-69
2022/11/19 01:03:12;;;;;;;1999.90;999.90;;;7.80;99.90;;;;;;4988497;28;20542;-68
2022/11/19 01:05:39;;;;;;;1999.90;999.90;;;7.70;99.90;;;;;;4990161;28;20498;-67
2022/11/19 01:08:05;;;;;;;1999.90;999.90;;;7.70;99.90;;;;;;4991786;28;20497;-68
2022/11/19 01:10:34;;;;;;;1999.90;999.90;;;7.60;99.90;;;;;;4992870;28;20450;-68
2022/11/19 01:15:48;;;;;;;1999.90;999.90;;;7.60;99.90;;;;;;4992316;28;20437;-70
2022/11/19 01:18:15;;;;;;;1999.90;999.90;;;7.60;99.90;;;;;;4991951;28;20501;-67
2022/11/19 01:20:42;;;;;;;1999.90;999.90;;;7.60;99.90;;;;;;4992376;28;20446;-66
2022/11/19 01:23:09;;;;;;;1999.90;999.90;;;7.70;99.90;;;;;;4992133;28;20454;-66
2022/11/19 01:25:35;;;;;;;1999.90;999.90;;;7.70;99.90;;;;;;4989887;28;20482;-68
2022/11/19 01:28:04;;;;;;;1999.90;999.90;;;7.70;99.90;;;;;;4991387;28;20446;-68
2022/11/19 01:30:31;;;;;;;1999.90;999.90;;;7.80;99.90;;;;;;4991621;28;20447;-67
2022/11/19 01:32:58;;;;;;;1999.90;999.90;;;7.80;99.90;;;;;;4991274;28;20449;-67
2022/11/19 01:35:25;;;;;;;1999.90;999.90;;;7.80;99.90;;;;;;4991489;28;20549;-68
2022/11/19 01:37:52;;;;;;;1999.90;999.90;;;7.80;99.90;;;;;;4991843;28;20459;-68
2022/11/19 01:40:19;;;;;;;1999.90;999.90;;;7.70;99.90;;;;;;4991713;28;20512;-68
2022/11/19 01:42:49;;;;;;;1999.90;999.90;;;7.70;99.90;;;;;;4990775;28;20967;-67
2022/11/19 01:45:32;;;;;;;1999.90;999.90;;;7.60;99.90;;;;;;4991662;28;20491;-68
2022/11/19 01:48:02;;;;;;;1999.90;999.90;;;7.60;99.90;;;;;;4991172;28;20439;-68
2022/11/19 01:50:32;;;;;;;1999.90;999.90;;;7.60;99.90;;;;;;4991837;28;20453;-68
2022/11/19 01:53:00;;;;;;;1999.90;999.90;;;7.70;99.90;;;;;;4990485;28;20463;-68
2022/11/19 01:55:28;;;;;;;1999.90;999.90;;;7.60;99.90;;;;;;4991478;28;20462;-69
2022/11/19 01:57:58;;;;;;;1999.90;999.90;;;7.60;99.90;;;;;;4990651;28;20454;-69
2022/11/19 02:00:26;;;;;;;1999.90;999.90;;;7.60;99.90;;;;;;4991858;28;20443;-68
2022/11/19 02:02:53;;;;;;;1999.90;999.90;;;7.70;99.90;;;;;;4991035;28;20442;-67
2022/11/19 02:05:20;;;;;;;1999.90;999.90;;;7.70;99.90;;;;;;4990873;28;20498;-69
2022/11/19 02:07:54;;;;;;;1999.90;999.90;;;7.70;99.90;;;;;;4991210;28;20795;-68
2022/11/19 02:10:25;;;;;;;1999.90;999.90;;;7.60;99.90;;;;;;4991143;28;20946;-68
2022/11/19 02:13:02;;;;;;;1999.90;999.90;;;7.60;99.90;;;;;;4990446;28;20802;-67
2022/11/19 02:15:44;;;;;;;1999.90;999.90;;;7.60;99.90;;;;;;4990895;28;20545;-67
2022/11/19 02:18:30;;;;;;;1999.90;999.90;;;7.60;99.90;;;;;;4990156;28;20461;-69
2022/11/19 02:21:13;;;;;;;1999.90;999.90;;;7.60;99.90;;;;;;4990020;28;20457;-68
2022/11/19 02:24:03;;;;;;;1999.90;999.90;;;7.60;99.90;;;;;;4991194;28;20470;-70
2022/11/19 02:26:56;;;;;;;1999.90;999.90;;;7.60;99.90;;;;;;4990563;28;20486;-67
2022/11/19 02:29:50;;;;;;;1999.90;999.90;;;7.50;99.90;;;;;;4971427;28;20831;-68
2022/11/19 02:32:24;;;;;;;1999.90;999.90;;;7.50;99.90;;;;;;4970875;28;20455;-69
2022/11/19 02:34:56;;;;;;;1999.90;999.90;;;7.50;99.90;;;;;;4970980;28;20464;-67
2022/11/19 02:37:27;;;;;;;1999.90;999.90;;;7.40;99.90;;;;;;4971160;28;20451;-69
2022/11/19 02:40:00;;;;;;;1999.90;999.90;;;7.40;99.90;;;;;;4970614;28;20459;-67
2022/11/19 02:42:31;;;;;;;1999.90;999.90;;;7.40;99.90;;;;;;4972359;28;20447;-69
2022/11/19 02:45:03;;;;;;;1999.90;999.90;;;7.40;99.90;;;;;;4972044;28;20491;-66
2022/11/19 02:47:35;;;;;;;1999.90;999.90;;;7.40;99.90;;;;;;4972747;28;20448;-68
2022/11/19 02:50:08;;;;;;;1999.90;999.90;;;7.30;99.90;;;;;;4972310;28;20493;-67
2022/11/19 02:52:36;;;;;;;1999.90;999.90;;;7.30;99.90;;;;;;4972407;28;20464;-70
2022/11/19 02:55:03;;;;;;;1999.90;999.90;;;7.40;99.90;;;;;;4972342;28;20468;-67
2022/11/19 02:57:29;;;;;;;1999.90;999.90;;;7.40;99.90;;;;;;4990743;28;20450;-69
2022/11/19 03:05:38;;;;;;;1999.90;999.90;;;7.40;99.90;;;;;;4991424;28;20522;-69
2022/11/19 03:08:06;;;;;;;1999.90;999.90;;;7.40;99.90;;;;;;4991987;28;20447;-68
2022/11/19 03:10:42;;;;;;;1999.90;999.90;;;7.40;99.90;;;;;;4991313;28;20453;-67
2022/11/19 03:18:59;;;;;;;1999.90;999.90;;;7.50;99.90;;;;;;4978194;28;20941;-67
2022/11/19 03:21:31;;;;;;;1999.90;999.90;;;7.60;99.90;;;;;;4991016;28;20442;-67
2022/11/19 03:24:01;;;;;;;1999.90;999.90;;;7.60;99.90;;;;;;4991302;28;20477;-68
2022/11/19 03:26:32;;;;;;;1999.90;999.90;;;7.60;99.90;;;;;;4991807;28;20501;-67
2022/11/19 03:29:05;;;;;;;1999.90;999.90;;;7.60;99.90;;;;;;4990234;28;21281;-67
2022/11/19 03:31:34;;;;;;;1999.90;999.90;;;7.60;99.90;;;;;;4991229;28;20546;-68
2022/11/19 03:34:07;;;;;;;1999.90;999.90;;;7.60;99.90;;;;;;4990579;28;20473;-67
2022/11/19 03:36:37;;;;;;;1999.90;999.90;;;7.70;99.90;;;;;;4991717;28;20829;-67
2022/11/19 03:39:08;;;;;;;1999.90;999.90;;;7.70;99.90;;;;;;4991492;28;20455;-68
2022/11/19 03:41:37;;;;;;;1999.90;999.90;;;7.70;99.90;;;;;;4991181;28;20484;-67
2022/11/19 03:44:08;;;;;;;1999.90;999.90;;;7.70;99.90;;;;;;4990698;28;20481;-66
2022/11/19 03:46:37;;;;;;;1999.90;999.90;;;7.60;99.90;;;;;;4990990;28;20522;-69
2022/11/19 03:49:08;;;;;;;1999.90;999.90;;;7.60;99.90;;;;;;4990899;28;20836;-66
2022/11/19 03:51:40;;;;;;;1999.90;999.90;;;7.70;99.90;;;;;;4990911;28;20450;-68
2022/11/19 03:54:07;;;;;;;1999.90;999.90;;;7.70;99.90;;;;;;4990720;28;20481;-67
2022/11/19 03:56:37;;;;;;;1999.90;999.90;;;7.70;99.90;;;;;;4990458;28;21258;-67
2022/11/19 03:59:05;;;;;;;1999.90;999.90;;;7.70;99.90;;;;;;4990795;28;20504;-67
2022/11/19 04:01:34;;;;;;;1999.90;999.90;;;7.70;99.90;;;;;;4990452;28;20818;-67
2022/11/19 04:06:46;;;;;;;1999.90;999.90;;;7.80;99.90;;;;;;4990373;28;21003;-67
2022/11/19 04:09:13;;;;;;;1999.90;999.90;;;7.80;99.90;;;;;;4990599;28;20833;-66
2022/11/19 04:11:40;;;;;;;1999.90;999.90;;;7.80;99.90;;;;;;4989788;28;20454;-67
2022/11/19 04:14:07;;;;;;;1999.90;999.90;;;7.80;99.90;;;;;;4990608;28;20471;-67
2022/11/19 04:16:34;;;;;;;1999.90;999.90;;;7.70;99.90;;;;;;4990294;28;20454;-69
2022/11/19 04:19:00;;;;;;;1999.90;999.90;;;7.70;99.90;;;;;;4990571;28;20461;-69
2022/11/19 04:21:27;;;;;;;1999.90;999.90;;;7.70;99.90;;;;;;4990457;28;20643;-66
2022/11/19 04:23:55;;;;;;;1999.90;999.90;;;7.70;99.90;;;;;;4989843;28;20471;-68
2022/11/19 04:26:22;;;;;;;1999.90;999.90;;;7.70;99.90;;;;;;4990541;28;20489;-68
2022/11/19 04:28:49;;;;;;;1999.90;999.90;;;7.70;99.90;;;;;;4990120;28;20446;-69
2022/11/19 04:31:15;;;;;;;1999.90;999.90;;;7.60;99.90;;;;;;4990209;28;20465;-66
2022/11/19 04:33:42;;;;;;;1999.90;999.90;;;7.60;99.90;;;;;;4989887;28;20470;-68
2022/11/19 04:36:09;;;;;;;1999.90;999.90;;;7.60;99.90;;;;;;4990373;28;20442;-67
2022/11/19 04:38:36;;;;;;;1999.90;999.90;;;7.70;99.90;;;;;;4990056;28;20454;-68
2022/11/19 04:41:04;;;;;;;1999.90;999.90;;;7.70;99.90;;;;;;4994190;28;20443;-68
2022/11/19 04:43:30;;;;;;;1999.90;999.90;;;7.70;99.90;;;;;;4994263;28;20450;-67
2022/11/19 04:45:57;;;;;;;1999.90;999.90;;;7.60;99.90;;;;;;4994094;28;20482;-67
2022/11/19 04:48:24;;;;;;;1999.90;999.90;;;7.60;99.90;;;;;;4994367;28;20442;-68
2022/11/19 04:50:51;;;;;;;1999.90;999.90;;;7.60;99.90;;;;;;4993739;28;20470;-67
2022/11/19 04:53:18;;;;;;;1999.90;999.90;;;7.60;99.90;;;;;;4993935;28;20466;-67
2022/11/19 04:55:44;;;;;;;1999.90;999.90;;;7.60;99.90;;;;;;4993933;28;20450;-65
2022/11/19 04:58:12;;;;;;;1999.90;999.90;;;7.60;99.90;;;;;;4994130;28;20458;-67
2022/11/19 05:00:39;;;;;;;1999.90;999.90;;;7.60;99.90;;;;;;4993785;28;20457;-68
2022/11/19 05:03:06;;;;;;;1999.90;999.90;;;7.60;99.90;;;;;;4993636;28;20442;-66
2022/11/19 05:05:33;;;;;;;1999.90;999.90;;;7.60;99.90;;;;;;4993660;28;20486;-67
2022/11/19 05:07:59;;;;;;;1999.90;999.90;;;7.60;99.90;;;;;;4993433;28;20482;-67
2022/11/19 05:10:26;;;;;;;1999.90;999.90;;;7.60;99.90;;;;;;4993995;28;20453;-67
2022/11/19 05:12:53;;;;;;;1999.90;999.90;;;7.60;99.90;;;;;;4993203;28;20450;-67
2022/11/19 05:15:21;;;;;;;1999.90;999.90;;;7.60;99.90;;;;;;4993854;28;20473;-68
2022/11/19 05:17:48;;;;;;;1999.90;999.90;;;7.60;99.90;;;;;;4993456;28;20473;-67
2022/11/19 05:20:15;;;;;;;1999.90;999.90;;;7.70;99.90;;;;;;4993611;28;20707;-67
2022/11/19 05:22:42;;;;;;;1999.90;999.90;;;7.70;99.90;;;;;;4993583;28;20453;-67
2022/11/19 05:25:09;;;;;;;1999.90;999.90;;;7.70;99.90;;;;;;4993210;28;20481;-65
2022/11/19 05:27:36;;;;;;;1999.90;999.90;;;7.80;99.90;;;;;;4993668;28;20449;-68
2022/11/19 05:30:03;;;;;;;1999.90;999.90;;;7.80;99.90;;;;;;4993015;28;20450;-67
2022/11/19 05:32:31;;;;;;;1999.90;999.90;;;7.70;99.90;;;;;;4993132;28;20450;-67
2022/11/19 05:34:58;;;;;;;1999.90;999.90;;;7.70;99.90;;;;;;4992831;28;20480;-67
2022/11/19 05:37:24;;;;;;;1999.90;999.90;;;7.70;99.90;;;;;;4993520;28;20450;-67
2022/11/19 05:39:51;;;;;;;1999.90;999.90;;;7.70;99.90;;;;;;4993115;28;20443;-67
2022/11/19 05:42:18;;;;;;;1999.90;999.90;;;7.70;99.90;;;;;;4993045;28;20457;-67
2022/11/19 05:44:45;;;;;;;1999.90;999.90;;;7.70;99.90;;;;;;4993354;28;20466;-66
2022/11/19 05:47:11;;;;;;;1999.90;999.90;;;7.80;99.90;;;;;;4992688;28;20996;-66
2022/11/19 05:49:39;;;;;;;1999.90;999.90;;;7.80;99.90;;;;;;4993071;28;20450;-67
2022/11/19 05:52:06;;;;;;;1999.90;999.90;;;7.80;99.90;;;;;;4991810;28;20455;-67
2022/11/19 05:54:33;;;;;;;1999.90;999.90;;;7.80;99.90;;;;;;4993136;28;20470;-66
2022/11/19 05:57:00;;;;;;;1999.90;999.90;;;7.80;99.90;;;;;;4992721;28;20451;-66
2022/11/19 05:59:26;;;;;;;1999.90;999.90;;;7.70;99.90;;;;;;4993000;28;20545;-65
2022/11/19 06:01:53;;;;;;;1999.90;999.90;;;7.70;99.90;;;;;;4992237;28;20451;-66
2022/11/19 06:04:20;;;;;;;1999.90;999.90;;;7.60;99.90;;;;;;4993118;28;20484;-66
2022/11/19 06:06:48;;;;;;;1999.90;999.90;;;7.70;99.90;;;;;;4992854;28;21187;-66
2022/11/19 06:09:15;;;;;;;1999.90;999.90;;;7.70;99.90;;;;;;4992485;28;21178;-68
2022/11/19 06:11:48;;;;;;;1999.90;999.90;;;7.70;99.90;;;;;;4992800;28;20443;-67
2022/11/19 06:14:16;;;;;;;1999.90;999.90;;;7.70;99.90;;;;;;4992620;28;20478;-68
2022/11/19 06:16:43;;;;;;;1999.90;999.90;;;7.70;99.90;;;;;;4992971;28;20446;-65
2022/11/19 06:19:10;;;;;;;1999.90;999.90;;;7.70;99.90;;;;;;4992536;28;20956;-67
2022/11/19 06:21:36;;;;;;;1999.90;999.90;;;7.70;99.90;;;;;;4992670;28;21011;-67
2022/11/19 06:24:05;;;;;;;1999.90;999.90;;;7.70;99.90;;;;;;4992383;28;20459;-67
2022/11/19 06:26:32;;;;;;;1999.90;999.90;;;7.60;99.90;;;;;;4992608;28;20857;-67
2022/11/19 06:28:59;;;;;;;1999.90;999.90;;;7.50;99.90;;;;;;4992411;28;20455;-66
2022/11/19 06:31:25;;;;;;;1999.90;999.90;;;7.50;99.90;;;;;;4992348;28;20443;-66
2022/11/19 06:33:53;;;;;;;1999.90;999.90;;;7.60;99.90;;;;;;4992402;28;20470;-67
2022/11/19 06:36:19;;;;;;;1999.90;999.90;;;7.60;99.90;;;;;;4992160;28;20443;-66
2022/11/19 06:38:46;;;;;;;1999.90;999.90;;;7.60;99.90;;;;;;4992377;28;20474;-68
2022/11/19 06:41:14;;;;;;;1999.90;999.90;;;7.60;99.90;;;;;;4991759;28;20451;-66
2022/11/19 06:43:41;;;;;;;1999.90;999.90;;;7.70;99.90;;;;;;4991988;28;20482;-66
2022/11/19 06:46:09;;;;;;;1999.90;999.90;;;7.80;99.90;;;;;;4991889;28;20577;-68
2022/11/19 06:48:35;;;;;;;1999.90;999.90;;;7.70;99.90;;;;;;4992005;28;20447;-66
2022/11/19 06:51:03;;;;;;;1999.90;999.90;;;7.80;99.90;;;;;;4992325;28;20799;-68
2022/11/19 06:53:30;;;;;;;1999.90;999.90;;;7.80;99.90;;;;;;4991279;28;20467;-67
2022/11/19 06:55:57;;;;;;;1999.90;999.90;;;7.70;99.90;;;;;;4992122;28;20450;-66
2022/11/19 06:58:25;;;;;;;1999.90;999.90;;;7.60;99.90;;;;;;4991504;28;20953;-67
2022/11/19 07:00:52;;;;;;;1999.90;999.90;;;7.60;99.90;;;;;;4991885;28;20807;-67
2022/11/19 07:03:18;;;;;;;1999.90;999.90;;;7.60;99.90;;;;;;4990110;28;21156;-65
2022/11/19 07:05:47;;;;;;;1999.90;999.90;;;7.60;99.90;;;;;;4991717;28;20455;-67
2022/11/19 07:08:14;;;;;;;1999.90;999.90;;;7.50;99.90;;;;;;4991333;28;20937;-66
2022/11/19 07:10:41;;;;;;;1999.90;999.90;;;7.50;99.90;;;;;;4991427;28;20447;-67
2022/11/19 07:13:08;;;;;;;1999.90;999.90;;;7.40;99.90;;;;;;4991422;28;20970;-67
2022/11/19 07:15:36;;;;;;;1999.90;999.90;;;7.40;99.90;;;;;;4990979;28;20482;-67
2022/11/19 07:18:03;;;;;;;1999.90;999.90;;;7.40;99.90;;;;;;4991623;28;20465;-66
2022/11/19 07:20:30;;;;;;;1999.90;999.90;;;7.30;99.90;;;;;;4991091;28;20473;-67
2022/11/19 07:22:56;;;;;;;1999.90;999.90;;;7.30;99.90;;;;;;4990977;28;20458;-66
2022/11/19 07:25:23;;;;;;;1999.90;999.90;;;7.20;99.90;;;;;;4991055;28;20862;-67
2022/11/19 07:27:50;;;;;;;1999.90;999.90;;;7.20;99.90;;;;;;4991397;28;20486;-66
2022/11/19 07:30:17;;;;;;;1999.90;999.90;;;7.20;99.90;;;;;;4991128;28;20803;-64
2022/11/19 07:32:45;;;;;;;1999.90;999.90;;;7.20;99.90;;;;;;4991099;28;20456;-67
2022/11/19 07:35:12;;;;;;;1999.90;999.90;;;7.30;99.90;;;;;;4991261;28;20477;-65
2022/11/19 07:37:39;;;;;;;1999.90;999.90;;;7.40;99.90;;;;;;4990541;28;20802;-68
2022/11/19 07:40:07;;;;;;;1999.90;999.90;;;7.50;99.90;;;;;;4991170;28;20454;-68
2022/11/19 07:42:51;;;;;;;1999.90;999.90;;;7.50;99.90;;;;;;4990470;28;20447;-67
2022/11/19 07:45:20;;;;;;;1999.90;999.90;;;7.60;99.90;;;;;;4990902;28;21047;-67
2022/11/19 07:47:49;;;;;;;1999.90;999.90;;;7.80;99.90;;;;;;4990525;28;20494;-68
2022/11/19 07:50:20;;;;;;;1999.90;999.90;;;8.00;99.90;;;;;;4990754;28;20474;-68
2022/11/19 07:52:47;;;;;;;1999.90;999.90;;;8.20;99.90;;;;;;4989926;28;20461;-66
2022/11/19 07:55:15;;;;;;;1999.90;999.90;;;8.30;99.90;;;;;;4990141;28;21041;-66
2022/11/19 07:57:42;;;;;;;1999.90;999.90;;;8.50;99.90;;;;;;4990584;28;20439;-69
2022/11/19 08:00:10;;;;;;;1999.90;999.90;;;8.50;99.90;;;;;;4989999;28;20443;-68
2022/11/19 08:02:37;;;;;;;1999.90;999.90;;;8.60;99.90;;;;;;4990334;28;20455;-67
2022/11/19 08:05:05;;;;;;;1999.90;999.90;;;8.50;99.90;;;;;;4990439;28;20474;-67
2022/11/19 08:07:32;;;;;;;1999.90;999.90;;;8.50;99.90;;;;;;4990834;28;20498;-68
2022/11/19 08:09:59;;;;;;;1999.90;999.90;;;8.50;99.90;;;;;;4990397;28;20461;-68
2022/11/19 08:12:26;;;;;;;1999.90;999.90;;;8.40;99.90;;;;;;4990410;28;20462;-67
2022/11/19 08:14:52;;;;;;;1999.90;999.90;;;8.30;99.90;;;;;;4987397;28;20474;-70
2022/11/19 08:20:07;;;;;;;1999.90;999.90;;;8.30;99.90;;;;;;4990717;28;20426;-68
2022/11/19 08:22:34;;;;;;;1999.90;999.90;;;8.30;99.90;;;;;;4989724;28;20504;-67
2022/11/19 08:25:01;;;;;;;1999.90;999.90;;;8.30;99.90;;;;;;4988827;28;20479;-68
2022/11/19 08:27:28;;;;;;;1999.90;999.90;;;8.20;99.90;;;;;;4982236;28;20480;-66
2022/11/19 08:29:55;;;;;;;1999.90;999.90;;;8.20;99.90;;;;;;4988309;28;20451;-69
2022/11/19 08:32:22;;;;;;;1999.90;999.90;;;8.20;99.90;;;;;;4988831;28;20947;-67
2022/11/19 08:34:48;;;;;;;1999.90;999.90;;;8.10;99.90;;;;;;4990264;28;20502;-66
2022/11/19 08:37:17;;;;;;;1999.90;999.90;;;8.10;99.90;;;;;;4990381;28;20999;-67
2022/11/19 08:39:43;;;;;;;1999.90;999.90;;;8.00;99.90;;;;;;4990384;28;20455;-68
2022/11/19 08:45:03;;;;;;;1999.90;999.90;;;8.10;99.90;;;;;;4955062;28;20483;-66
2022/11/19 08:47:30;;;;;;;1999.90;999.90;;;8.20;99.90;;;;;;4990479;28;20544;-69
2022/11/19 08:49:56;;;;;;;1999.90;999.90;;;8.40;99.90;;;;;;4990196;28;20450;-66
2022/11/19 08:52:24;;;;;;;1999.90;999.90;;;8.50;99.90;;;;;;4987784;28;20462;-65
2022/11/19 08:54:52;;;;;;;1999.90;999.90;;;8.70;99.90;;;;;;4988677;28;20474;-66
2022/11/19 08:57:19;;;;;;;1999.90;999.90;;;8.80;99.90;;;;;;4989255;28;20501;-66
2022/11/19 08:59:45;;;;;;;1999.90;999.90;;;8.90;99.90;;;;;;4990266;28;20456;-66
2022/11/19 09:02:12;;;;;;;1999.90;999.90;;;9.00;99.90;;;;;;4988793;28;20481;-67
2022/11/19 09:04:40;;;;;;;1999.90;999.90;;;9.00;99.90;;;;;;4990006;28;20488;-66
2022/11/19 09:07:07;;;;;;;1999.90;999.90;;;9.10;99.90;;;;;;4989958;28;20482;-68
2022/11/19 09:09:35;;;;;;;1999.90;999.90;;;9.10;99.90;;;;;;4989544;28;20464;-66
2022/11/19 09:12:02;;;;;;;1999.90;999.90;;;9.30;99.90;;;;;;4989982;28;20450;-66
2022/11/19 09:14:29;;;;;;;1999.90;999.90;;;9.50;99.90;;;;;;4989793;28;20467;-67
2022/11/19 09:16:55;;;;;;;1999.90;999.90;;;9.60;99.90;;;;;;4990178;28;20443;-66
2022/11/19 09:19:22;;;;;;;1999.90;999.90;;;9.60;99.90;;;;;;4989664;28;20455;-65
2022/11/19 09:21:49;;;;;;;1999.90;999.90;;;9.70;99.90;;;;;;4989505;28;20458;-66
2022/11/19 09:24:16;;;;;;;1999.90;999.90;;;9.70;99.90;;;;;;4990067;28;20498;-66
2022/11/19 09:26:44;;;;;;;1999.90;999.90;;;9.80;99.90;;;;;;4991332;28;20489;-66
2022/11/19 09:29:11;;;;;;;1999.90;999.90;;;9.80;99.90;;;;;;4993555;28;20461;-68
2022/11/19 09:31:37;;;;;;;1999.90;999.90;;;10.00;99.90;;;;;;4993143;28;20451;-68
2022/11/19 09:34:04;;;;;;;1999.90;999.90;;;10.00;99.90;;;;;;4993287;28;20468;-66
2022/11/19 09:36:31;;;;;;;1999.90;999.90;;;10.10;99.90;;;;;;4992863;28;20447;-68
2022/11/19 09:38:58;;;;;;;1999.90;999.90;;;10.30;99.90;;;;;;4993591;28;20466;-67
2022/11/19 09:41:43;;;;;;;1999.90;999.90;;;10.40;99.90;;;;;;4992970;28;20669;-66
2022/11/19 09:44:33;;;;;;;1999.90;999.90;;;10.50;99.90;;;;;;4992325;28;20478;-67
2022/11/19 09:47:12;;;;;;;1999.90;999.90;;;10.70;99.90;;;;;;4992664;28;20494;-67
2022/11/19 09:49:45;;;;;;;1999.90;999.90;;;10.80;99.90;;;;;;4992963;28;21132;-66
2022/11/19 09:52:16;;;;;;;1999.90;999.90;;;10.80;99.90;;;;;;4993025;28;20537;-66
2022/11/19 09:54:48;;;;;;;1999.90;999.90;;;10.70;99.90;;;;;;4992716;28;20463;-66
2022/11/19 09:57:20;;;;;;;1999.90;999.90;;;10.60;99.90;;;;;;4993019;28;20442;-66
2022/11/19 09:59:51;;;;;;;1999.90;999.90;;;10.50;99.90;;;;;;4992754;28;20446;-66
2022/11/19 10:02:21;;;;;;;1999.90;999.90;;;10.50;99.90;;;;;;4992821;28;20451;-67
2022/11/19 10:04:49;;;;;;;1999.90;999.90;;;10.50;99.90;;;;;;4992348;28;20470;-66
2022/11/19 10:07:24;;;;;;;1999.90;999.90;;;10.30;99.90;;;;;;4992846;28;20479;-66
2022/11/19 10:10:00;;;;;;;1999.90;999.90;;;10.20;99.90;;;;;;4992377;28;20457;-66
2022/11/19 10:12:48;;;;;;;1999.90;999.90;;;10.10;99.90;;;;;;4992634;28;20443;-66
2022/11/19 10:15:24;;;;;;;1999.90;999.90;;;10.10;99.90;;;;;;4992527;28;20467;-66
2022/11/19 10:17:59;;;;;;;1999.90;999.90;;;10.00;99.90;;;;;;4992483;28;20446;-67
2022/11/19 10:20:51;;;;;;;1999.90;999.90;;;10.00;99.90;;;;;;4992853;28;20454;-65
2022/11/19 10:23:19;;;;;;;1999.90;999.90;;;9.90;99.90;;;;;;4992505;28;20453;-66
2022/11/19 10:25:48;;;;;;;1999.90;999.90;;;10.00;99.90;;;;;;4992949;28;20458;-66
2022/11/19 10:28:18;;;;;;;1999.90;999.90;;;10.00;99.90;;;;;;4992121;28;20482;-66
2022/11/19 10:30:50;;;;;;;1999.90;999.90;;;10.00;99.90;;;;;;4992121;28;20465;-67
2022/11/19 10:33:23;;;;;;;1999.90;999.90;;;10.00;99.90;;;;;;4991882;28;20446;-67
2022/11/19 10:35:55;;;;;;;1999.90;999.90;;;10.00;99.90;;;;;;4992654;28;20466;-66
2022/11/19 10:38:26;;;;;;;1999.90;999.90;;;10.10;99.90;;;;;;4991835;28;20454;-66
2022/11/19 10:40:57;;;;;;;1999.90;999.90;;;10.20;99.90;;;;;;4992077;28;20447;-67
2022/11/19 10:43:30;;;;;;;1999.90;999.90;;;10.30;99.90;;;;;;4991920;28;20457;-66
2022/11/19 10:46:00;;;;;;;1999.90;999.90;;;10.30;99.90;;;;;;4992505;28;20443;-66
2022/11/19 10:48:37;;;;;;;1999.90;999.90;;;10.50;99.90;;;;;;4992114;28;20494;-67
2022/11/19 10:51:12;;;;;;;1999.90;999.90;;;10.70;99.90;;;;;;4991655;28;20453;-66
2022/11/19 10:53:40;;;;;;;1999.90;999.90;;;10.80;99.90;;;;;;4991540;28;20508;-67
2022/11/19 10:56:12;;;;;;;1999.90;999.90;;;10.70;99.90;;;;;;4991909;28;20453;-66
2022/11/19 10:58:42;;;;;;;1999.90;999.90;;;10.60;99.90;;;;;;4992024;28;20801;-66
2022/11/19 11:01:17;;;;;;;1999.90;999.90;;;10.50;99.90;;;;;;4991513;28;20457;-66
2022/11/19 11:03:48;;;;;;;1999.90;999.90;;;10.40;99.90;;;;;;4991835;28;20462;-66
2022/11/19 11:06:16;;;;;;;1999.90;999.90;;;10.30;99.90;;;;;;4991025;28;20453;-68
2022/11/19 11:08:51;;;;;;;1999.90;999.90;;;10.10;99.90;;;;;;4990553;28;20478;-66
2022/11/19 11:14:50;;;;;;;1999.90;999.90;;;10.00;99.90;;;;;;4989475;28;20448;-70
2022/11/19 11:16:59;;;;;;;1999.90;999.90;;;9.70;99.90;;;;;;4985770;28;20438;-68
2022/11/19 11:19:26;;;;;;;1999.90;999.90;;;9.60;99.90;;;;;;4988612;28;20447;-68
2022/11/19 11:21:54;;;;;;;1999.90;999.90;;;9.50;99.90;;;;;;4991015;28;20435;-68
2022/11/19 11:24:22;;;;;;;1999.90;999.90;;;9.50;99.90;;;;;;4981219;28;20485;-68
2022/11/19 11:26:49;;;;;;;1999.90;999.90;;;9.40;99.90;;;;;;4991054;28;20457;-70
2022/11/19 11:29:26;;;;;;;1999.90;999.90;;;9.30;99.90;;;;;;4990747;28;20890;-67
2022/11/19 11:31:53;;;;;;;1999.90;999.90;;;9.20;99.90;;;;;;4991057;28;20533;-70
2022/11/19 11:34:31;;;;;;;1999.90;999.90;;;9.10;99.90;;;;;;4991143;28;20470;-69
2022/11/19 11:37:00;;;;;;;1999.90;999.90;;;9.10;99.90;;;;;;4985606;28;20454;-69
2022/11/19 11:39:30;;;;;;;1999.90;999.90;;;9.20;99.90;;;;;;4989497;28;20447;-70
2022/11/19 11:41:59;;;;;;;1999.90;999.90;;;9.30;99.90;;;;;;4986072;28;20546;-70
2022/11/19 11:44:27;;;;;;;1999.90;999.90;;;9.30;99.90;;;;;;4985661;28;20471;-68
2022/11/19 11:46:56;;;;;;;1999.90;999.90;;;9.40;99.90;;;;;;4975783;28;20561;-66
2022/11/19 11:49:30;;;;;;;1999.90;999.90;;;9.40;99.90;;;;;;4987443;28;20443;-67
2022/11/19 11:52:12;;;;;;;1999.90;999.90;;;9.50;99.90;;;;;;4988379;28;20443;-70
2022/11/19 11:54:54;;;;;;;1999.90;999.90;;;9.60;99.90;;;;;;4981987;28;20458;-67
2022/11/19 11:57:22;;;;;;;1999.90;999.90;;;9.50;99.90;;;;;;4986171;28;20447;-68
2022/11/19 11:59:49;;;;;;;1999.90;999.90;;;9.40;99.90;;;;;;4997519;28;20438;-68
2022/11/19 12:02:22;;;;;;;1999.90;999.90;;;9.50;99.90;;;;;;4996507;28;20438;-67
2022/11/19 12:04:51;;;;;;;1999.90;999.90;;;9.40;99.90;;;;;;4992749;28;20981;-67
2022/11/19 12:07:32;;;;;;;1999.90;999.90;;;9.40;99.90;;;;;;4986859;28;20446;-68
2022/11/19 12:10:07;;;;;;;1999.90;999.90;;;9.30;99.90;;;;;;4984775;28;20538;-68
2022/11/19 12:12:42;;;;;;;1999.90;999.90;;;9.20;99.90;;;;;;4985651;28;20469;-68
2022/11/19 12:15:20;;;;;;;1999.90;999.90;;;9.00;99.90;;;;;;4984303;28;20525;-68
2022/11/19 12:17:54;;;;;;;1999.90;999.90;;;8.90;99.90;;;;;;4978565;28;21203;-69
2022/11/19 12:20:35;;;;;;;1999.90;999.90;;;8.90;99.90;;;;;;4979742;28;20469;-69
2022/11/19 12:23:23;;;;;;;1999.90;999.90;;;8.80;99.90;;;;;;4984197;28;20553;-68
2022/11/19 12:26:00;;;;;;;1999.90;999.90;;;8.80;99.90;;;;;;4984086;28;20494;-70
2022/11/19 12:28:38;;;;;;;1999.90;999.90;;;8.90;99.90;;;;;;4976667;28;20472;-65
2022/11/19 12:31:16;;;;;;;1999.90;999.90;;;8.90;99.90;;;;;;4985170;28;20835;-67
2022/11/19 12:34:14;;;;;;;1999.90;999.90;;;8.90;99.90;;;;;;4987225;28;20458;-69
2022/11/19 12:36:55;;;;;;;1999.90;999.90;;;9.00;99.90;;;;;;4971897;28;20473;-68
2022/11/19 12:39:34;;;;;;;1999.90;999.90;;;9.00;99.90;;;;;;4989088;28;20784;-69
2022/11/19 12:42:13;;;;;;;1999.90;999.90;;;9.00;99.90;;;;;;4989024;28;20983;-69
2022/11/19 12:44:51;;;;;;;1999.90;999.90;;;9.00;99.90;;;;;;4972533;28;20470;-69
2022/11/19 12:47:34;;;;;;;1999.90;999.90;;;9.00;99.90;;;;;;4980274;28;20457;-68